sensor_id;sensor_type;location;lat;lon;timestamp;pressure;altitude;pressure_sealevel;temperature;humidity
81372;BME280;70827;52.206;5.294;2024-01-10T00:01:50;103146.91;;;-2.46;56.04
81372;BME280;70827;52.206;5.294;2024-01-10T00:04:16;103154.69;;;-1.75;55.95
81372;BME280;70827;52.206;5.294;2024-01-10T00:06:44;103139.97;;;-1.91;56.94
81372;BME280;70827;52.206;5.294;2024-01-10T00:09:10;103157.03;;;-1.78;56.64
81372;BME280;70827;52.206;5.294;2024-01-10T00:11:35;103156.59;;;-1.61;54.90
81372;BME280;70827;52.206;5.294;2024-01-10T00:14:01;103150.06;;;-1.46;56.61
81372;BME280;70827;52.206;5.294;2024-01-10T00:16:26;103151.97;;;-1.67;59.24
81372;BME280;70827;52.206;5.294;2024-01-10T00:18:52;103154.81;;;-2.19;55.72
81372;BME280;70827;52.206;5.294;2024-01-10T00:21:18;103144.72;;;-2.41;55.75
81372;BME280;70827;52.206;5.294;2024-01-10T00:23:47;103147.84;;;-2.33;57.83
81372;BME280;70827;52.206;5.294;2024-01-10T00:26:12;103140.44;;;-1.97;55.66
81372;BME280;70827;52.206;5.294;2024-01-10T00:28:38;103137.44;;;-1.91;56.71
81372;BME280;70827;52.206;5.294;2024-01-10T00:31:04;103140.88;;;-1.79;55.59
81372;BME280;70827;52.206;5.294;2024-01-10T00:33:29;103138.66;;;-1.98;56.08
81372;BME280;70827;52.206;5.294;2024-01-10T00:35:55;103133.94;;;-2.27;56.29
81372;BME280;70827;52.206;5.294;2024-01-10T00:38:20;103141.84;;;-2.12;56.24
81372;BME280;70827;52.206;5.294;2024-01-10T00:40:49;103144.06;;;-2.38;56.91
81372;BME280;70827;52.206;5.294;2024-01-10T00:43:14;103134.00;;;-2.15;56.11
81372;BME280;70827;52.206;5.294;2024-01-10T00:45:40;103130.19;;;-2.20;56.00
81372;BME280;70827;52.206;5.294;2024-01-10T00:48:06;103122.44;;;-1.65;57.56
81372;BME280;70827;52.206;5.294;2024-01-10T00:50:32;103122.09;;;-2.38;55.88
81372;BME280;70827;52.206;5.294;2024-01-10T00:52:57;103119.59;;;-2.26;57.08
81372;BME280;70827;52.206;5.294;2024-01-10T00:55:23;103125.00;;;-2.22;56.03
81372;BME280;70827;52.206;5.294;2024-01-10T00:57:51;103132.78;;;-2.08;55.96
81372;BME280;70827;52.206;5.294;2024-01-10T01:00:17;103123.72;;;-2.17;56.03
81372;BME280;70827;52.206;5.294;2024-01-10T01:02:42;103132.72;;;-2.20;56.27
81372;BME280;70827;52.206;5.294;2024-01-10T01:05:08;103129.97;;;-2.23;56.09
81372;BME280;70827;52.206;5.294;2024-01-10T01:07:34;103125.28;;;-1.95;57.06
81372;BME280;70827;52.206;5.294;2024-01-10T01:10:00;103125.19;;;-2.42;57.06
81372;BME280;70827;52.206;5.294;2024-01-10T01:12:25;103122.78;;;-2.29;57.29
81372;BME280;70827;52.206;5.294;2024-01-10T01:14:54;103123.97;;;-2.69;57.63
81372;BME280;70827;52.206;5.294;2024-01-10T01:17:19;103126.16;;;-2.40;58.13
81372;BME280;70827;52.206;5.294;2024-01-10T01:19:45;103127.13;;;-2.16;56.82
81372;BME280;70827;52.206;5.294;2024-01-10T01:22:11;103121.56;;;-2.34;57.04
81372;BME280;70827;52.206;5.294;2024-01-10T01:24:36;103126.66;;;-2.22;58.23
81372;BME280;70827;52.206;5.294;2024-01-10T01:27:03;103104.91;;;-2.52;57.27
81372;BME280;70827;52.206;5.294;2024-01-10T01:29:28;103122.47;;;-2.55;57.78
81372;BME280;70827;52.206;5.294;2024-01-10T01:31:56;103116.50;;;-2.56;58.24
81372;BME280;70827;52.206;5.294;2024-01-10T01:34:22;103120.41;;;-1.92;57.84
81372;BME280;70827;52.206;5.294;2024-01-10T01:36:48;103108.97;;;-2.32;58.03
81372;BME280;70827;52.206;5.294;2024-01-10T01:39:13;103097.84;;;-2.68;58.07
81372;BME280;70827;52.206;5.294;2024-01-10T01:41:39;103113.06;;;-2.23;58.52
81372;BME280;70827;52.206;5.294;2024-01-10T01:44:04;103117.66;;;-2.40;58.11
81372;BME280;70827;52.206;5.294;2024-01-10T01:46:30;103114.25;;;-2.41;58.31
81372;BME280;70827;52.206;5.294;2024-01-10T01:48:59;103105.69;;;-2.65;59.82
81372;BME280;70827;52.206;5.294;2024-01-10T01:51:25;103099.41;;;-2.58;58.47
81372;BME280;70827;52.206;5.294;2024-01-10T01:53:53;103103.13;;;-2.65;58.88
81372;BME280;70827;52.206;5.294;2024-01-10T01:56:19;103102.91;;;-2.68;59.89
81372;BME280;70827;52.206;5.294;2024-01-10T01:58:44;103086.81;;;-2.57;60.96
81372;BME280;70827;52.206;5.294;2024-01-10T02:01:11;103100.09;;;-2.83;60.05
81372;BME280;70827;52.206;5.294;2024-01-10T02:03:37;103101.66;;;-2.73;59.48
81372;BME280;70827;52.206;5.294;2024-01-10T02:06:06;103093.47;;;-2.81;60.02
81372;BME280;70827;52.206;5.294;2024-01-10T02:08:32;103101.00;;;-2.49;60.48
81372;BME280;70827;52.206;5.294;2024-01-10T02:10:58;103099.63;;;-2.55;61.06
81372;BME280;70827;52.206;5.294;2024-01-10T02:13:24;103083.81;;;-2.63;60.53
81372;BME280;70827;52.206;5.294;2024-01-10T02:15:50;103077.38;;;-2.69;60.30
81372;BME280;70827;52.206;5.294;2024-01-10T02:18:16;103087.38;;;-3.05;60.87
81372;BME280;70827;52.206;5.294;2024-01-10T02:20:43;103080.13;;;-2.45;60.33
81372;BME280;70827;52.206;5.294;2024-01-10T02:23:12;103077.25;;;-2.49;60.77
81372;BME280;70827;52.206;5.294;2024-01-10T02:25:40;103074.38;;;-2.76;59.78
81372;BME280;70827;52.206;5.294;2024-01-10T02:28:06;103065.44;;;-2.82;60.68
81372;BME280;70827;52.206;5.294;2024-01-10T02:30:32;103075.50;;;-2.38;60.69
81372;BME280;70827;52.206;5.294;2024-01-10T02:32:57;103075.94;;;-2.78;59.68
81372;BME280;70827;52.206;5.294;2024-01-10T02:35:23;103074.09;;;-2.90;59.97
81372;BME280;70827;52.206;5.294;2024-01-10T02:37:49;103070.13;;;-2.87;61.08
81372;BME280;70827;52.206;5.294;2024-01-10T02:40:14;103082.41;;;-3.03;61.35
81372;BME280;70827;52.206;5.294;2024-01-10T02:42:42;103075.97;;;-2.99;61.15
81372;BME280;70827;52.206;5.294;2024-01-10T02:45:09;103069.69;;;-2.59;60.97
81372;BME280;70827;52.206;5.294;2024-01-10T02:47:34;103064.28;;;-2.52;60.88
81372;BME280;70827;52.206;5.294;2024-01-10T02:50:00;103067.75;;;-2.40;62.45
81372;BME280;70827;52.206;5.294;2024-01-10T02:52:26;103063.56;;;-2.39;62.11
81372;BME280;70827;52.206;5.294;2024-01-10T02:54:51;103059.41;;;-2.27;63.36
81372;BME280;70827;52.206;5.294;2024-01-10T02:57:17;103061.59;;;-2.77;61.62
81372;BME280;70827;52.206;5.294;2024-01-10T02:59:45;103060.97;;;-2.96;61.62
81372;BME280;70827;52.206;5.294;2024-01-10T03:02:11;103055.75;;;-3.20;61.47
81372;BME280;70827;52.206;5.294;2024-01-10T03:04:37;103050.44;;;-3.23;62.06
81372;BME280;70827;52.206;5.294;2024-01-10T03:07:03;103058.84;;;-3.02;63.58
81372;BME280;70827;52.206;5.294;2024-01-10T03:09:28;103060.00;;;-2.53;63.31
81372;BME280;70827;52.206;5.294;2024-01-10T03:11:54;103051.94;;;-2.93;62.05
81372;BME280;70827;52.206;5.294;2024-01-10T03:14:20;103051.22;;;-2.80;62.11
81372;BME280;70827;52.206;5.294;2024-01-10T03:16:48;103046.88;;;-3.15;61.73
81372;BME280;70827;52.206;5.294;2024-01-10T03:19:14;103045.03;;;-3.06;61.95
81372;BME280;70827;52.206;5.294;2024-01-10T03:21:39;103047.91;;;-2.34;60.15
81372;BME280;70827;52.206;5.294;2024-01-10T03:24:06;103027.94;;;-3.52;60.59
81372;BME280;70827;52.206;5.294;2024-01-10T03:26:31;103040.06;;;-3.26;61.83
81372;BME280;70827;52.206;5.294;2024-01-10T03:28:57;103040.03;;;-3.16;61.45
81372;BME280;70827;52.206;5.294;2024-01-10T03:31:23;103049.72;;;-2.88;62.01
81372;BME280;70827;52.206;5.294;2024-01-10T03:33:51;103025.69;;;-3.15;61.89
81372;BME280;70827;52.206;5.294;2024-01-10T03:36:17;103041.88;;;-2.91;62.64
81372;BME280;70827;52.206;5.294;2024-01-10T03:38:43;103041.91;;;-3.13;60.75
81372;BME280;70827;52.206;5.294;2024-01-10T03:41:13;103034.72;;;-3.19;60.72
81372;BME280;70827;52.206;5.294;2024-01-10T03:43:38;103038.72;;;-3.11;59.72
81372;BME280;70827;52.206;5.294;2024-01-10T03:46:04;103037.34;;;-2.95;60.09
81372;BME280;70827;52.206;5.294;2024-01-10T03:48:29;103033.72;;;-2.99;60.35
81372;BME280;70827;52.206;5.294;2024-01-10T03:50:57;103040.66;;;-2.96;59.38
81372;BME280;70827;52.206;5.294;2024-01-10T03:53:23;103042.03;;;-3.34;59.53
81372;BME280;70827;52.206;5.294;2024-01-10T03:55:49;103037.34;;;-2.95;59.92
81372;BME280;70827;52.206;5.294;2024-01-10T03:58:14;103034.31;;;-2.80;59.57
81372;BME280;70827;52.206;5.294;2024-01-10T04:00:40;103017.69;;;-3.31;59.50
81372;BME280;70827;52.206;5.294;2024-01-10T04:03:05;103037.50;;;-3.16;59.81
81372;BME280;70827;52.206;5.294;2024-01-10T04:05:31;103031.69;;;-3.25;60.19
81372;BME280;70827;52.206;5.294;2024-01-10T04:07:59;103037.66;;;-2.69;59.11
81372;BME280;70827;52.206;5.294;2024-01-10T04:10:25;103038.84;;;-3.09;59.94
81372;BME280;70827;52.206;5.294;2024-01-10T04:12:50;103032.81;;;-2.66;60.78
81372;BME280;70827;52.206;5.294;2024-01-10T04:15:16;103034.06;;;-3.16;61.85
81372;BME280;70827;52.206;5.294;2024-01-10T04:17:42;103031.47;;;-3.28;60.17
81372;BME280;70827;52.206;5.294;2024-01-10T04:20:08;103034.06;;;-3.16;60.79
81372;BME280;70827;52.206;5.294;2024-01-10T04:22:34;103032.19;;;-3.19;60.19
81372;BME280;70827;52.206;5.294;2024-01-10T04:25:05;103026.97;;;-3.20;60.42
81372;BME280;70827;52.206;5.294;2024-01-10T04:27:31;103017.72;;;-3.20;59.08
81372;BME280;70827;52.206;5.294;2024-01-10T04:29:56;103027.31;;;-2.94;58.18
81372;BME280;70827;52.206;5.294;2024-01-10T04:32:22;103028.69;;;-2.76;59.31
81372;BME280;70827;52.206;5.294;2024-01-10T04:34:48;103022.03;;;-3.19;60.26
81372;BME280;70827;52.206;5.294;2024-01-10T04:37:13;103009.56;;;-2.94;59.84
81372;BME280;70827;52.206;5.294;2024-01-10T04:39:39;103022.09;;;-3.29;59.47
81372;BME280;70827;52.206;5.294;2024-01-10T04:42:07;103029.63;;;-2.97;58.76
81372;BME280;70827;52.206;5.294;2024-01-10T04:44:33;103018.63;;;-2.86;58.40
81372;BME280;70827;52.206;5.294;2024-01-10T04:46:58;103021.25;;;-2.96;59.09
81372;BME280;70827;52.206;5.294;2024-01-10T04:49:24;103013.31;;;-2.89;58.86
81372;BME280;70827;52.206;5.294;2024-01-10T04:51:50;103020.66;;;-2.70;60.96
81372;BME280;70827;52.206;5.294;2024-01-10T04:54:15;103010.72;;;-3.34;59.04
81372;BME280;70827;52.206;5.294;2024-01-10T04:56:41;103010.38;;;-2.83;58.18
81372;BME280;70827;52.206;5.294;2024-01-10T04:59:09;103021.72;;;-3.12;59.22
81372;BME280;70827;52.206;5.294;2024-01-10T05:01:35;103022.09;;;-3.51;59.17
81372;BME280;70827;52.206;5.294;2024-01-10T05:04:00;103025.31;;;-2.98;60.26
81372;BME280;70827;52.206;5.294;2024-01-10T05:06:26;103017.78;;;-3.30;59.70
81372;BME280;70827;52.206;5.294;2024-01-10T05:08:52;103011.59;;;-2.78;60.70
81372;BME280;70827;52.206;5.294;2024-01-10T05:11:17;103006.38;;;-3.57;59.17
81372;BME280;70827;52.206;5.294;2024-01-10T05:13:43;103003.72;;;-2.93;58.70
81372;BME280;70827;52.206;5.294;2024-01-10T05:16:11;103008.44;;;-3.19;59.12
81372;BME280;70827;52.206;5.294;2024-01-10T05:18:37;103009.41;;;-3.29;59.62
81372;BME280;70827;52.206;5.294;2024-01-10T05:21:03;103009.19;;;-3.32;60.50
81372;BME280;70827;52.206;5.294;2024-01-10T05:23:28;102988.59;;;-3.47;60.19
81372;BME280;70827;52.206;5.294;2024-01-10T05:25:54;102992.66;;;-2.36;61.05
81372;BME280;70827;52.206;5.294;2024-01-10T05:28:20;102999.47;;;-3.04;60.61
81372;BME280;70827;52.206;5.294;2024-01-10T05:30:45;102987.88;;;-3.12;59.15
81372;BME280;70827;52.206;5.294;2024-01-10T05:33:13;102997.47;;;-3.08;60.13
81372;BME280;70827;52.206;5.294;2024-01-10T05:35:39;103007.75;;;-3.28;59.78
81372;BME280;70827;52.206;5.294;2024-01-10T05:38:05;103001.50;;;-3.44;59.69
81372;BME280;70827;52.206;5.294;2024-01-10T05:40:30;103003.31;;;-3.09;59.28
81372;BME280;70827;52.206;5.294;2024-01-10T05:42:56;102994.75;;;-2.99;60.88
81372;BME280;70827;52.206;5.294;2024-01-10T05:45:22;103007.56;;;-2.98;61.15
81372;BME280;70827;52.206;5.294;2024-01-10T05:47:47;102999.97;;;-2.86;59.82
81372;BME280;70827;52.206;5.294;2024-01-10T05:50:16;103006.78;;;-2.97;60.07
81372;BME280;70827;52.206;5.294;2024-01-10T05:52:41;103003.66;;;-2.83;61.27
81372;BME280;70827;52.206;5.294;2024-01-10T05:55:07;103004.47;;;-2.94;59.40
81372;BME280;70827;52.206;5.294;2024-01-10T05:57:33;102979.44;;;-3.01;58.47
81372;BME280;70827;52.206;5.294;2024-01-10T05:59:58;102992.72;;;-3.37;59.57
81372;BME280;70827;52.206;5.294;2024-01-10T06:02:24;102989.09;;;-3.07;60.72
81372;BME280;70827;52.206;5.294;2024-01-10T06:04:50;102991.44;;;-3.32;60.67
81372;BME280;70827;52.206;5.294;2024-01-10T06:07:18;102990.59;;;-3.43;58.52
81372;BME280;70827;52.206;5.294;2024-01-10T06:09:43;102994.00;;;-2.87;59.82
81372;BME280;70827;52.206;5.294;2024-01-10T06:12:09;102979.88;;;-3.50;58.24
81372;BME280;70827;52.206;5.294;2024-01-10T06:14:35;102977.03;;;-3.65;58.82
81372;BME280;70827;52.206;5.294;2024-01-10T06:17:00;102971.75;;;-4.00;59.27
81372;BME280;70827;52.206;5.294;2024-01-10T06:19:26;102982.06;;;-3.33;57.82
81372;BME280;70827;52.206;5.294;2024-01-10T06:21:52;102984.34;;;-3.36;56.72
81372;BME280;70827;52.206;5.294;2024-01-10T06:24:20;102978.03;;;-3.63;58.42
81372;BME280;70827;52.206;5.294;2024-01-10T06:26:45;102979.25;;;-3.36;57.13
81372;BME280;70827;52.206;5.294;2024-01-10T06:29:11;102974.78;;;-3.72;56.89
81372;BME280;70827;52.206;5.294;2024-01-10T06:31:37;102964.91;;;-3.69;57.59
81372;BME280;70827;52.206;5.294;2024-01-10T06:34:02;102981.69;;;-3.59;57.17
81372;BME280;70827;52.206;5.294;2024-01-10T06:36:28;102989.81;;;-3.42;57.56
81372;BME280;70827;52.206;5.294;2024-01-10T06:38:53;102988.91;;;-3.32;57.74
81372;BME280;70827;52.206;5.294;2024-01-10T06:41:23;102990.72;;;-3.41;57.43
81372;BME280;70827;52.206;5.294;2024-01-10T06:43:49;102978.03;;;-3.85;58.30
81372;BME280;70827;52.206;5.294;2024-01-10T06:46:15;102986.16;;;-3.23;57.82
81372;BME280;70827;52.206;5.294;2024-01-10T06:48:40;102986.00;;;-3.03;57.46
81372;BME280;70827;52.206;5.294;2024-01-10T06:51:10;102986.94;;;-3.46;58.05
81372;BME280;70827;52.206;5.294;2024-01-10T06:53:35;102977.97;;;-3.53;58.75
81372;BME280;70827;52.206;5.294;2024-01-10T06:56:01;102969.16;;;-3.90;59.58
81372;BME280;70827;52.206;5.294;2024-01-10T06:58:29;102977.38;;;-3.82;59.39
81372;BME280;70827;52.206;5.294;2024-01-10T07:00:55;102975.63;;;-3.40;59.20
81372;BME280;70827;52.206;5.294;2024-01-10T07:03:20;102975.72;;;-3.82;59.33
81372;BME280;70827;52.206;5.294;2024-01-10T07:05:46;102988.94;;;-3.64;59.45
81372;BME280;70827;52.206;5.294;2024-01-10T07:08:12;102992.31;;;-3.31;58.90
81372;BME280;70827;52.206;5.294;2024-01-10T07:10:37;102979.38;;;-3.56;58.71
81372;BME280;70827;52.206;5.294;2024-01-10T07:13:03;102977.72;;;-3.78;60.11
81372;BME280;70827;52.206;5.294;2024-01-10T07:15:31;102981.66;;;-3.49;59.50
81372;BME280;70827;52.206;5.294;2024-01-10T07:17:57;102986.69;;;-3.71;59.67
81372;BME280;70827;52.206;5.294;2024-01-10T07:20:23;102987.63;;;-3.37;59.61
81372;BME280;70827;52.206;5.294;2024-01-10T07:22:48;102978.16;;;-3.18;60.10
81372;BME280;70827;52.206;5.294;2024-01-10T07:25:14;102986.19;;;-3.45;60.43
81372;BME280;70827;52.206;5.294;2024-01-10T07:27:40;102996.31;;;-3.23;60.56
81372;BME280;70827;52.206;5.294;2024-01-10T07:30:07;102986.28;;;-3.22;60.70
81372;BME280;70827;52.206;5.294;2024-01-10T07:32:35;102987.53;;;-3.60;60.46
81372;BME280;70827;52.206;5.294;2024-01-10T07:35:01;102998.63;;;-3.48;59.97
81372;BME280;70827;52.206;5.294;2024-01-10T07:37:26;103008.88;;;-3.69;59.55
81372;BME280;70827;52.206;5.294;2024-01-10T07:39:52;103008.88;;;-3.47;59.78
81372;BME280;70827;52.206;5.294;2024-01-10T07:42:18;103014.19;;;-3.44;59.37
81372;BME280;70827;52.206;5.294;2024-01-10T07:44:43;103015.53;;;-3.37;59.52
81372;BME280;70827;52.206;5.294;2024-01-10T07:47:09;103001.88;;;-3.71;60.05
81372;BME280;70827;52.206;5.294;2024-01-10T07:49:37;103002.75;;;-3.71;60.07
81372;BME280;70827;52.206;5.294;2024-01-10T07:52:03;103003.81;;;-3.69;60.05
81372;BME280;70827;52.206;5.294;2024-01-10T07:54:29;103002.09;;;-3.90;60.13
81372;BME280;70827;52.206;5.294;2024-01-10T07:56:55;102995.94;;;-3.72;58.98
81372;BME280;70827;52.206;5.294;2024-01-10T07:59:20;102997.06;;;-3.24;59.64
81372;BME280;70827;52.206;5.294;2024-01-10T08:01:54;103012.66;;;-3.42;58.14
81372;BME280;70827;52.206;5.294;2024-01-10T08:04:20;103015.75;;;-3.56;58.19
81372;BME280;70827;52.206;5.294;2024-01-10T08:06:48;102996.31;;;-3.45;58.85
81372;BME280;70827;52.206;5.294;2024-01-10T08:09:14;103002.75;;;-3.17;58.93
81372;BME280;70827;52.206;5.294;2024-01-10T08:11:39;103005.50;;;-3.57;58.42
81372;BME280;70827;52.206;5.294;2024-01-10T08:14:05;103012.47;;;-3.87;58.13
81372;BME280;70827;52.206;5.294;2024-01-10T08:16:30;103010.34;;;-3.60;57.76
81372;BME280;70827;52.206;5.294;2024-01-10T08:18:56;103008.88;;;-3.47;56.88
81372;BME280;70827;52.206;5.294;2024-01-10T08:21:22;103012.00;;;-3.39;57.47
81372;BME280;70827;52.206;5.294;2024-01-10T08:23:50;103007.31;;;-3.35;57.77
81372;BME280;70827;52.206;5.294;2024-01-10T08:26:15;102995.78;;;-3.41;56.99
81372;BME280;70827;52.206;5.294;2024-01-10T08:28:41;103007.34;;;-3.23;56.75
81372;BME280;70827;52.206;5.294;2024-01-10T08:31:07;103008.34;;;-2.99;56.61
81372;BME280;70827;52.206;5.294;2024-01-10T08:33:32;103006.84;;;-2.85;55.90
81372;BME280;70827;52.206;5.294;2024-01-10T08:35:58;103006.31;;;-3.03;55.94
81372;BME280;70827;52.206;5.294;2024-01-10T08:38:24;103002.81;;;-2.36;55.25
81372;BME280;70827;52.206;5.294;2024-01-10T08:40:52;103000.41;;;-2.23;53.65
81372;BME280;70827;52.206;5.294;2024-01-10T08:43:17;103004.94;;;-2.43;53.28
81372;BME280;70827;52.206;5.294;2024-01-10T08:45:43;103005.03;;;-2.41;52.67
81372;BME280;70827;52.206;5.294;2024-01-10T08:48:09;103006.69;;;-2.42;53.14
81372;BME280;70827;52.206;5.294;2024-01-10T08:50:35;102995.34;;;-2.12;51.45
81372;BME280;70827;52.206;5.294;2024-01-10T08:53:00;103002.56;;;-1.69;51.88
81372;BME280;70827;52.206;5.294;2024-01-10T08:55:26;103001.38;;;-1.74;51.68
81372;BME280;70827;52.206;5.294;2024-01-10T08:57:54;103001.69;;;-1.58;51.00
81372;BME280;70827;52.206;5.294;2024-01-10T09:00:20;102996.47;;;-1.48;49.73
81372;BME280;70827;52.206;5.294;2024-01-10T09:02:45;103008.47;;;-0.97;49.15
81372;BME280;70827;52.206;5.294;2024-01-10T09:05:11;103012.13;;;-1.30;48.39
81372;BME280;70827;52.206;5.294;2024-01-10T09:07:37;103009.22;;;-1.23;47.95
81372;BME280;70827;52.206;5.294;2024-01-10T09:10:03;103001.44;;;-0.37;46.40
81372;BME280;70827;52.206;5.294;2024-01-10T09:12:29;102996.16;;;-0.26;46.62
81372;BME280;70827;52.206;5.294;2024-01-10T09:14:57;102990.25;;;-0.65;46.58
81372;BME280;70827;52.206;5.294;2024-01-10T09:17:23;102982.75;;;-0.11;45.87
81372;BME280;70827;52.206;5.294;2024-01-10T09:19:48;102993.31;;;-0.05;45.18
81372;BME280;70827;52.206;5.294;2024-01-10T09:22:14;102997.34;;;0.59;44.10
81372;BME280;70827;52.206;5.294;2024-01-10T09:24:39;102989.88;;;-0.45;45.84
81372;BME280;70827;52.206;5.294;2024-01-10T09:27:05;102985.75;;;-0.03;44.30
81372;BME280;70827;52.206;5.294;2024-01-10T09:29:31;102987.25;;;-0.33;45.68
81372;BME280;70827;52.206;5.294;2024-01-10T09:31:59;102992.84;;;0.01;44.04
81372;BME280;70827;52.206;5.294;2024-01-10T09:34:24;102990.75;;;0.09;44.27
81372;BME280;70827;52.206;5.294;2024-01-10T09:36:50;103005.88;;;0.19;43.96
81372;BME280;70827;52.206;5.294;2024-01-10T09:39:16;103008.84;;;1.09;42.67
81372;BME280;70827;52.206;5.294;2024-01-10T09:41:45;102999.94;;;0.33;43.45
81372;BME280;70827;52.206;5.294;2024-01-10T09:44:11;102998.88;;;0.71;42.54
81372;BME280;70827;52.206;5.294;2024-01-10T09:46:37;102986.97;;;0.99;42.47
81372;BME280;70827;52.206;5.294;2024-01-10T09:49:06;102996.28;;;0.56;42.46
81372;BME280;70827;52.206;5.294;2024-01-10T09:51:32;102992.34;;;2.07;40.97
81372;BME280;70827;52.206;5.294;2024-01-10T09:53:58;102989.75;;;1.61;41.03
81372;BME280;70827;52.206;5.294;2024-01-10T09:56:26;102979.97;;;1.54;41.12
81372;BME280;70827;52.206;5.294;2024-01-10T09:58:51;102981.69;;;0.96;41.19
81372;BME280;70827;52.206;5.294;2024-01-10T10:01:19;102976.97;;;1.32;41.22
81372;BME280;70827;52.206;5.294;2024-01-10T10:03:46;102986.78;;;1.99;39.14
81372;BME280;70827;52.206;5.294;2024-01-10T10:06:16;102990.94;;;2.28;39.26
81372;BME280;70827;52.206;5.294;2024-01-10T10:08:42;102987.25;;;2.87;38.58
81372;BME280;70827;52.206;5.294;2024-01-10T10:11:11;102980.88;;;2.00;39.63
81372;BME280;70827;52.206;5.294;2024-01-10T10:13:37;102990.03;;;2.75;37.25
81372;BME280;70827;52.206;5.294;2024-01-10T10:16:04;102990.69;;;2.55;38.40
81372;BME280;70827;52.206;5.294;2024-01-10T10:18:30;102994.00;;;2.37;38.07
81372;BME280;70827;52.206;5.294;2024-01-10T10:21:09;102996.91;;;2.44;38.64
81372;BME280;70827;52.206;5.294;2024-01-10T10:23:38;102985.25;;;3.83;36.74
81372;BME280;70827;52.206;5.294;2024-01-10T10:26:12;102988.13;;;2.71;36.85
81372;BME280;70827;52.206;5.294;2024-01-10T10:28:38;102986.50;;;2.09;37.72
81372;BME280;70827;52.206;5.294;2024-01-10T10:31:04;102986.75;;;3.10;37.79
81372;BME280;70827;52.206;5.294;2024-01-10T10:33:32;102977.09;;;2.72;37.77
81372;BME280;70827;52.206;5.294;2024-01-10T10:35:57;102975.94;;;3.68;35.54
81372;BME280;70827;52.206;5.294;2024-01-10T10:38:23;102975.47;;;4.30;34.48
81372;BME280;70827;52.206;5.294;2024-01-10T10:40:52;102975.56;;;3.96;35.10
81372;BME280;70827;52.206;5.294;2024-01-10T10:43:18;102965.03;;;3.20;35.75
81372;BME280;70827;52.206;5.294;2024-01-10T10:45:46;102967.88;;;3.96;34.57
81372;BME280;70827;52.206;5.294;2024-01-10T10:48:12;102980.44;;;4.83;34.56
81372;BME280;70827;52.206;5.294;2024-01-10T10:50:41;102975.56;;;4.13;34.06
81372;BME280;70827;52.206;5.294;2024-01-10T10:53:08;102975.84;;;3.84;34.42
81372;BME280;70827;52.206;5.294;2024-01-10T10:55:33;102979.38;;;4.21;33.80
81372;BME280;70827;52.206;5.294;2024-01-10T10:58:03;102971.03;;;4.83;33.79
81372;BME280;70827;52.206;5.294;2024-01-10T11:00:28;102965.94;;;4.85;33.38
81372;BME280;70827;52.206;5.294;2024-01-10T11:02:54;102967.94;;;4.91;33.79
81372;BME280;70827;52.206;5.294;2024-01-10T11:05:21;102963.63;;;4.70;32.60
81372;BME280;70827;52.206;5.294;2024-01-10T11:07:47;102957.78;;;4.18;33.48
81372;BME280;70827;52.206;5.294;2024-01-10T11:10:14;102969.13;;;6.24;31.74
81372;BME280;70827;52.206;5.294;2024-01-10T11:12:53;102963.94;;;6.01;32.21
81372;BME280;70827;52.206;5.294;2024-01-10T11:15:30;102970.13;;;5.22;31.50
81372;BME280;70827;52.206;5.294;2024-01-10T11:18:13;102967.16;;;5.33;31.53
81372;BME280;70827;52.206;5.294;2024-01-10T11:20:51;102963.09;;;4.98;31.47
81372;BME280;70827;52.206;5.294;2024-01-10T11:23:39;102963.56;;;4.32;33.04
81372;BME280;70827;52.206;5.294;2024-01-10T11:26:07;102963.81;;;5.15;31.76
81372;BME280;70827;52.206;5.294;2024-01-10T11:28:33;102964.06;;;4.81;33.53
81372;BME280;70827;52.206;5.294;2024-01-10T11:31:01;102951.44;;;5.47;32.25
81372;BME280;70827;52.206;5.294;2024-01-10T11:33:31;102948.03;;;4.67;32.36
81372;BME280;70827;52.206;5.294;2024-01-10T11:36:11;102951.38;;;5.24;31.16
81372;BME280;70827;52.206;5.294;2024-01-10T11:38:57;102947.22;;;5.07;32.29
81372;BME280;70827;52.206;5.294;2024-01-10T11:41:24;102942.84;;;5.25;32.06
81372;BME280;70827;52.206;5.294;2024-01-10T11:46:49;102947.09;;;5.66;30.93
81372;BME280;70827;52.206;5.294;2024-01-10T11:49:16;102941.78;;;5.84;32.15
81372;BME280;70827;52.206;5.294;2024-01-10T11:51:42;102950.13;;;5.99;30.89
81372;BME280;70827;52.206;5.294;2024-01-10T11:54:08;102944.28;;;5.60;31.79
81372;BME280;70827;52.206;5.294;2024-01-10T11:56:38;102942.66;;;6.06;30.99
81372;BME280;70827;52.206;5.294;2024-01-10T11:59:06;102932.13;;;6.70;29.95
81372;BME280;70827;52.206;5.294;2024-01-10T12:01:32;102943.81;;;5.70;30.70
81372;BME280;70827;52.206;5.294;2024-01-10T12:04:01;102940.97;;;6.52;29.88
81372;BME280;70827;52.206;5.294;2024-01-10T12:06:27;102935.47;;;5.97;30.73
81372;BME280;70827;52.206;5.294;2024-01-10T12:08:53;102925.94;;;5.73;30.31
81372;BME280;70827;52.206;5.294;2024-01-10T12:11:18;102916.03;;;5.20;31.51
81372;BME280;70827;52.206;5.294;2024-01-10T12:13:44;102923.59;;;7.47;29.63
81372;BME280;70827;52.206;5.294;2024-01-10T12:16:10;102920.28;;;6.99;30.52
81372;BME280;70827;52.206;5.294;2024-01-10T12:18:37;102921.84;;;6.46;29.99
81372;BME280;70827;52.206;5.294;2024-01-10T12:21:05;102915.16;;;7.00;29.25
81372;BME280;70827;52.206;5.294;2024-01-10T12:23:31;102915.75;;;6.68;29.73
81372;BME280;70827;52.206;5.294;2024-01-10T12:25:56;102915.56;;;8.22;27.81
81372;BME280;70827;52.206;5.294;2024-01-10T12:28:22;102918.38;;;6.69;29.30
81372;BME280;70827;52.206;5.294;2024-01-10T12:30:48;102918.09;;;8.20;28.87
81372;BME280;70827;52.206;5.294;2024-01-10T12:33:13;102904.47;;;8.24;27.47
81372;BME280;70827;52.206;5.294;2024-01-10T12:35:39;102905.19;;;8.49;28.98
81372;BME280;70827;52.206;5.294;2024-01-10T12:38:07;102915.03;;;7.48;28.00
81372;BME280;70827;52.206;5.294;2024-01-10T12:40:33;102903.94;;;8.36;28.00
81372;BME280;70827;52.206;5.294;2024-01-10T12:43:02;102902.25;;;7.79;28.26
81372;BME280;70827;52.206;5.294;2024-01-10T12:45:27;102901.03;;;7.68;28.45
81372;BME280;70827;52.206;5.294;2024-01-10T12:47:53;102904.75;;;6.97;28.45
81372;BME280;70827;52.206;5.294;2024-01-10T12:50:19;102899.28;;;8.54;28.21
81372;BME280;70827;52.206;5.294;2024-01-10T12:52:44;102899.56;;;7.48;28.21